Time;durP1;ratioP1;P1;durP2;ratioP2;P2;SDS_P1;SDS_P2;PMS_P1;PMS_P2;Temp;Humidity;BMP_temperature;BMP_pressure;BME280_temperature;BME280_humidity;BME280_pressure;Samples;Min_cycle;Max_cycle;Signal;HPM_P1;HPM_P2
2021/06/19 00:02:15;;;;;;;35.10;31.30;;;;;;;21.95;100.00;101099.56;5075241;28;20039;-73
2021/06/19 00:04:41;;;;;;;36.40;32.63;;;;;;;22.03;100.00;101095.00;5079198;28;20102;-71
2021/06/19 00:07:07;;;;;;;32.63;29.13;;;;;;;21.92;100.00;101094.63;5072535;28;20085;-71
2021/06/19 00:09:33;;;;;;;35.38;29.20;;;;;;;21.89;100.00;101094.28;5087062;28;20039;-73
2021/06/19 00:12:00;;;;;;;32.83;29.30;;;;;;;21.89;100.00;101099.63;5090829;28;20032;-73
2021/06/19 00:14:26;;;;;;;33.38;27.52;;;;;;;21.82;100.00;101090.81;5072502;28;20051;-71
2021/06/19 00:16:53;;;;;;;29.15;25.85;;;;;;;21.76;100.00;101090.63;5075528;28;20070;-72
2021/06/19 00:19:20;;;;;;;30.83;27.55;;;;;;;21.73;100.00;101083.03;5076852;28;20032;-73
2021/06/19 00:21:46;;;;;;;30.63;27.33;;;;;;;21.67;100.00;101107.91;5078234;28;20055;-72
2021/06/19 00:24:23;;;;;;;34.15;28.45;;;;;;;21.68;100.00;101151.44;5064765;28;20518;-72
2021/06/19 00:26:50;;;;;;;35.75;30.13;;;;;;;21.61;100.00;101145.31;5071953;28;20138;-73
2021/06/19 00:29:19;;;;;;;33.97;30.60;;;;;;;21.64;100.00;101131.53;5079889;28;20783;-74
2021/06/19 00:31:45;;;;;;;33.30;27.33;;;;;;;21.70;100.00;101125.34;5075748;28;20101;-72
2021/06/19 00:34:12;;;;;;;29.63;26.67;;;;;;;21.72;100.00;101132.13;5082192;28;20817;-72
2021/06/19 00:36:38;;;;;;;36.15;29.15;;;;;;;21.61;100.00;101127.44;5061002;28;20062;-72
2021/06/19 00:39:06;;;;;;;31.85;28.55;;;;;;;21.47;100.00;101126.63;5063181;28;20117;-71
2021/06/19 00:41:34;;;;;;;31.20;27.10;;;;;;;21.37;100.00;101115.56;5067572;28;20131;-72
2021/06/19 00:44:03;;;;;;;33.67;27.27;;;;;;;21.31;100.00;101100.41;5080058;28;20036;-73
2021/06/19 00:46:29;;;;;;;31.02;27.52;;;;;;;21.30;100.00;101112.09;5062025;28;20043;-72
2021/06/19 00:48:55;;;;;;;31.90;25.27;;;;;;;21.24;100.00;101124.41;5071749;28;20044;-72
2021/06/19 00:51:21;;;;;;;30.75;26.50;;;;;;;21.26;100.00;101110.88;5077670;28;20028;-73
2021/06/19 00:53:47;;;;;;;31.45;28.25;;;;;;;21.22;100.00;101088.31;5080177;28;20039;-74
2021/06/19 00:56:14;;;;;;;29.73;26.55;;;;;;;21.23;100.00;101088.09;5073612;28;20019;-73
2021/06/19 00:58:40;;;;;;;29.88;26.60;;;;;;;21.14;100.00;101086.69;5082739;28;20571;-72
2021/06/19 01:01:06;;;;;;;29.08;25.88;;;;;;;21.06;100.00;101094.88;5051855;28;20048;-72
2021/06/19 01:03:32;;;;;;;30.63;25.95;;;;;;;20.96;100.00;101093.50;5081303;28;20043;-73
2021/06/19 01:05:58;;;;;;;33.47;24.13;;;;;;;20.94;100.00;101087.50;5078484;28;20213;-73
2021/06/19 01:08:24;;;;;;;29.25;24.88;;;;;;;20.92;100.00;101084.25;5066976;28;20583;-71
2021/06/19 01:10:55;;;;;;;27.98;24.70;;;;;;;20.89;100.00;101074.00;5059783;28;20036;-73
2021/06/19 01:13:21;;;;;;;29.33;25.60;;;;;;;20.89;100.00;101081.16;5070015;28;20075;-72
2021/06/19 01:15:51;;;;;;;26.20;23.58;;;;;;;20.84;100.00;101078.31;5063895;28;20135;-71
2021/06/19 01:18:17;;;;;;;30.85;22.70;;;;;;;20.82;100.00;101086.50;5074617;28;20931;-72
2021/06/19 01:20:42;;;;;;;25.13;22.42;;;;;;;20.84;100.00;101084.47;5074487;28;20563;-72
2021/06/19 01:23:08;;;;;;;27.90;22.80;;;;;;;20.80;100.00;101076.06;5076649;28;20032;-73
2021/06/19 01:25:34;;;;;;;27.83;24.45;;;;;;;20.84;100.00;101078.31;5071590;28;20488;-72
2021/06/19 01:28:01;;;;;;;31.15;27.27;;;;;;;20.83;100.00;101079.31;5057776;28;20043;-71
2021/06/19 01:30:28;;;;;;;27.23;24.00;;;;;;;20.78;100.00;101072.78;5072841;28;20051;-72
2021/06/19 01:32:55;;;;;;;24.60;22.13;;;;;;;20.75;100.00;101083.84;5080635;28;20031;-72
2021/06/19 01:35:22;;;;;;;32.40;25.33;;;;;;;20.68;100.00;101076.88;5071897;28;20033;-72
2021/06/19 01:37:50;;;;;;;28.77;23.90;;;;;;;20.71;100.00;101071.13;5069083;28;20700;-72
2021/06/19 01:40:24;;;;;;;30.00;25.35;;;;;;;20.66;100.00;101090.41;5038952;28;20079;-73
2021/06/19 01:42:51;;;;;;;24.90;22.05;;;;;;;20.64;100.00;101089.78;5074944;28;20040;-73
2021/06/19 01:45:22;;;;;;;28.13;23.77;;;;;;;20.63;100.00;101093.50;5071601;28;20097;-72
2021/06/19 01:47:49;;;;;;;29.95;26.85;;;;;;;20.71;100.00;101079.13;5081525;28;20377;-73
2021/06/19 01:50:22;;;;;;;30.33;27.25;;;;;;;20.67;100.00;101088.56;5061915;28;20192;-72
2021/06/19 01:52:49;;;;;;;29.60;25.20;;;;;;;20.61;100.00;101115.00;5067803;28;20032;-72
2021/06/19 01:55:16;;;;;;;28.27;24.73;;;;;;;20.61;100.00;101098.22;5077958;28;20035;-73
2021/06/19 01:57:42;;;;;;;38.05;29.48;;;;;;;20.65;100.00;101078.09;5070001;28;20032;-73
2021/06/19 02:00:11;;;;;;;33.40;29.75;;;;;;;20.64;100.00;101080.97;5063095;28;20173;-72
2021/06/19 02:02:41;;;;;;;27.08;24.48;;;;;;;20.57;100.00;101084.44;5066998;28;20404;-74
2021/06/19 02:05:09;;;;;;;32.78;29.25;;;;;;;20.61;100.00;101077.69;5079554;28;20042;-73
2021/06/19 02:07:44;;;;;;;30.73;27.27;;;;;;;20.51;100.00;101076.41;5078283;28;20059;-73
2021/06/19 02:10:10;;;;;;;32.00;27.17;;;;;;;20.37;100.00;101065.75;5075306;28;20028;-73
2021/06/19 02:12:35;;;;;;;39.65;30.10;;;;;;;20.39;100.00;101081.53;5082501;28;20040;-73
2021/06/19 02:15:01;;;;;;;34.75;27.95;;;;;;;20.35;100.00;101078.47;5080656;28;20030;-73
2021/06/19 02:17:26;;;;;;;34.60;30.60;;;;;;;20.37;100.00;101068.41;5080945;28;20466;-73
2021/06/19 02:19:52;;;;;;;33.17;29.15;;;;;;;20.37;100.00;101060.44;5068781;28;20041;-72
2021/06/19 02:22:18;;;;;;;33.45;29.90;;;;;;;20.36;100.00;101071.28;5063996;28;20043;-72
2021/06/19 02:24:44;;;;;;;35.08;31.38;;;;;;;20.40;100.00;101072.53;5079318;28;20774;-73
2021/06/19 02:27:14;;;;;;;36.17;32.30;;;;;;;20.34;100.00;101076.00;5082538;28;20093;-72
2021/06/19 02:29:41;;;;;;;32.80;29.65;;;;;;;20.32;100.00;101084.19;5062705;28;20489;-72
2021/06/19 02:32:08;;;;;;;36.50;32.92;;;;;;;20.31;100.00;101079.91;5088091;28;20035;-72
2021/06/19 02:34:38;;;;;;;35.05;31.55;;;;;;;20.33;100.00;101085.03;5081182;28;20031;-72
2021/06/19 02:37:05;;;;;;;36.88;33.08;;;;;;;20.35;100.00;101080.31;5088819;28;20028;-75
2021/06/19 02:39:31;;;;;;;34.90;31.13;;;;;;;20.41;100.00;101088.28;5085006;28;20354;-72
2021/06/19 02:41:57;;;;;;;35.05;31.20;;;;;;;20.49;100.00;101081.13;5084656;28;20040;-72
2021/06/19 02:44:22;;;;;;;36.00;32.08;;;;;;;20.48;100.00;101079.50;5063792;28;20032;-73
2021/06/19 02:46:48;;;;;;;37.65;33.80;;;;;;;20.46;100.00;101093.03;5050024;28;20037;-73
2021/06/19 02:49:14;;;;;;;36.88;32.67;;;;;;;20.44;100.00;101092.41;5062014;28;20178;-72
2021/06/19 02:51:39;;;;;;;43.63;35.50;;;;;;;20.37;100.00;101084.41;5076155;28;20477;-72
2021/06/19 02:54:05;;;;;;;30.98;27.70;;;;;;;20.34;100.00;101086.66;5088349;28;20066;-72
2021/06/19 02:56:31;;;;;;;33.92;30.13;;;;;;;20.31;100.00;101093.22;5087174;28;20024;-72
2021/06/19 02:58:57;;;;;;;30.52;27.35;;;;;;;20.32;100.00;101094.03;5087753;28;20036;-71
2021/06/19 03:01:22;;;;;;;35.40;29.35;;;;;;;20.36;100.00;101103.25;5082111;28;20075;-72
2021/06/19 03:03:48;;;;;;;33.67;30.17;;;;;;;20.42;100.00;101099.78;5082443;28;20506;-74
2021/06/19 03:06:15;;;;;;;34.72;30.55;;;;;;;20.43;100.00;101101.41;5080568;28;20041;-74
2021/06/19 03:08:41;;;;;;;36.45;32.63;;;;;;;20.49;100.00;101092.59;5080574;28;20043;-72
2021/06/19 03:11:06;;;;;;;43.00;34.67;;;;;;;20.54;100.00;101100.00;5082873;28;20040;-72
2021/06/19 03:13:32;;;;;;;41.70;36.47;;;;;;;20.61;100.00;101107.00;5066931;28;20100;-72
2021/06/19 03:15:57;;;;;;;37.13;33.33;;;;;;;20.65;100.00;101115.41;5075831;28;20054;-72
2021/06/19 03:18:23;;;;;;;37.20;33.53;;;;;;;20.66;100.00;101111.72;5076022;28;20501;-73
2021/06/19 03:20:49;;;;;;;40.55;35.22;;;;;;;20.68;100.00;101109.69;5063908;28;20040;-73
2021/06/19 03:23:15;;;;;;;39.28;35.25;;;;;;;20.72;100.00;101104.75;5082847;28;20101;-73
2021/06/19 03:25:42;;;;;;;36.35;32.75;;;;;;;20.72;100.00;101108.25;5079759;28;20040;-74
2021/06/19 03:28:10;;;;;;;35.80;32.20;;;;;;;20.77;100.00;101099.63;5085122;28;20036;-72
2021/06/19 03:30:38;;;;;;;38.17;34.03;;;;;;;20.85;100.00;101107.44;5075579;28;20064;-72
2021/06/19 03:33:04;;;;;;;34.80;30.95;;;;;;;20.87;100.00;101108.06;5064800;28;20074;-73
2021/06/19 03:35:30;;;;;;;36.00;32.03;;;;;;;20.89;100.00;101111.31;5085099;28;20506;-72
2021/06/19 03:37:56;;;;;;;34.28;30.63;;;;;;;20.91;100.00;101106.59;5086519;28;20622;-72
2021/06/19 03:40:23;;;;;;;32.97;29.55;;;;;;;20.92;100.00;101108.22;5075149;28;20034;-72
2021/06/19 03:42:50;;;;;;;37.03;31.73;;;;;;;20.94;100.00;101113.38;5069079;28;20075;-71
2021/06/19 03:45:17;;;;;;;32.13;28.83;;;;;;;20.99;100.00;101106.38;5076588;28;20036;-72
2021/06/19 03:47:44;;;;;;;33.80;29.45;;;;;;;21.02;100.00;101104.31;5079003;28;20032;-72
2021/06/19 03:50:13;;;;;;;32.63;28.85;;;;;;;21.02;100.00;101102.50;5082258;28;20442;-74
2021/06/19 03:52:38;;;;;;;31.27;27.98;;;;;;;21.04;100.00;101102.28;5077875;28;20110;-73
2021/06/19 03:55:07;;;;;;;34.45;28.17;;;;;;;21.08;100.00;101106.16;5080291;28;20037;-74
2021/06/19 03:57:36;;;;;;;30.70;27.80;;;;;;;21.11;100.00;101103.09;5069323;28;20119;-72
2021/06/19 04:00:06;;;;;;;32.70;27.02;;;;;;;21.19;100.00;101113.53;5070439;28;20029;-72
2021/06/19 04:02:38;;;;;;;30.15;26.88;;;;;;;21.17;100.00;101113.75;5080480;28;20036;-74
2021/06/19 04:05:05;;;;;;;29.65;26.48;;;;;;;21.24;100.00;101119.06;5085036;28;20438;-72
2021/06/19 04:07:31;;;;;;;29.73;26.63;;;;;;;21.27;100.00;101125.84;5086595;28;20036;-72
2021/06/19 04:09:56;;;;;;;32.90;28.02;;;;;;;21.27;100.00;101123.19;5090332;28;20388;-72
2021/06/19 04:12:22;;;;;;;29.25;26.42;;;;;;;21.24;100.00;101113.72;5048822;28;20090;-74
2021/06/19 04:14:51;;;;;;;27.73;24.73;;;;;;;21.22;100.00;101123.78;5063697;28;20028;-75
2021/06/19 04:17:17;;;;;;;30.42;27.30;;;;;;;21.19;100.00;101122.38;5083558;28;20388;-74
2021/06/19 04:19:43;;;;;;;30.70;27.30;;;;;;;21.16;100.00;101125.44;5083105;28;20836;-73
2021/06/19 04:22:10;;;;;;;29.38;25.67;;;;;;;21.16;100.00;101130.78;5085939;28;20032;-74
2021/06/19 04:24:36;;;;;;;29.75;26.55;;;;;;;21.19;100.00;101127.72;5068173;28;20040;-73
2021/06/19 04:27:02;;;;;;;29.15;26.25;;;;;;;21.25;100.00;101127.88;5085828;28;20078;-73
2021/06/19 04:29:30;;;;;;;30.52;26.92;;;;;;;21.25;100.00;101135.88;5085228;28;20188;-73
2021/06/19 04:31:57;;;;;;;28.15;25.08;;;;;;;21.29;100.00;101137.94;5080224;28;20027;-74
2021/06/19 04:34:23;;;;;;;29.02;26.05;;;;;;;21.27;100.00;101147.19;5076896;28;20142;-74
2021/06/19 04:36:50;;;;;;;27.55;24.65;;;;;;;21.21;100.00;101148.84;5085868;28;20040;-73
2021/06/19 04:39:15;;;;;;;26.83;24.13;;;;;;;21.15;100.00;101139.81;5084959;28;20119;-72
2021/06/19 04:46:52;;;;;;;27.45;24.73;;;;;;;21.14;100.00;101145.38;5079854;28;20385;-72
2021/06/19 04:49:18;;;;;;;28.40;25.48;;;;;;;21.13;100.00;101147.19;5083793;28;20051;-73
2021/06/19 04:51:45;;;;;;;29.30;25.73;;;;;;;21.17;100.00;101142.25;5069257;28;20047;-72
2021/06/19 04:54:12;;;;;;;30.25;27.05;;;;;;;21.22;100.00;101147.81;5065713;28;20033;-74
2021/06/19 04:56:38;;;;;;;27.90;25.10;;;;;;;21.23;100.00;101144.13;5065570;28;20056;-73
2021/06/19 04:59:04;;;;;;;27.42;24.33;;;;;;;21.32;100.00;101156.22;5063755;28;20028;-72
2021/06/19 05:01:30;;;;;;;27.30;24.42;;;;;;;21.38;100.00;101152.72;5075150;28;20040;-73
2021/06/19 05:03:55;;;;;;;29.30;24.98;;;;;;;21.48;100.00;101151.50;5083872;28;20032;-73
2021/06/19 05:06:21;;;;;;;31.90;28.48;;;;;;;21.64;100.00;101152.88;5079350;28;20035;-72
2021/06/19 05:08:46;;;;;;;32.25;28.85;;;;;;;21.69;100.00;101148.56;5084509;28;20036;-73
2021/06/19 05:11:12;;;;;;;31.73;27.20;;;;;;;21.77;99.59;101155.50;5082605;28;20037;-73
2021/06/19 05:13:37;;;;;;;32.05;27.13;;;;;;;21.86;99.29;101162.25;5066619;28;20046;-73
2021/06/19 05:16:03;;;;;;;34.13;27.45;;;;;;;21.91;98.30;101169.66;5079290;28;20044;-75
2021/06/19 05:18:29;;;;;;;29.98;26.60;;;;;;;21.96;97.43;101181.34;5084888;28;20050;-73
2021/06/19 05:20:55;;;;;;;31.30;27.65;;;;;;;21.99;97.42;101179.28;5060849;28;20111;-74
2021/06/19 05:23:21;;;;;;;29.88;26.85;;;;;;;21.99;98.04;101182.75;5084738;28;20027;-73
2021/06/19 05:25:46;;;;;;;38.45;30.05;;;;;;;22.00;99.22;101187.06;5080536;28;20028;-74
2021/06/19 05:28:12;;;;;;;29.58;26.58;;;;;;;21.94;100.00;101183.41;5084909;28;20046;-74
2021/06/19 05:30:38;;;;;;;32.58;29.35;;;;;;;21.88;100.00;101183.41;5078533;28;20055;-73
2021/06/19 05:33:04;;;;;;;32.47;29.05;;;;;;;21.78;100.00;101187.34;5083595;28;20396;-73
2021/06/19 05:35:30;;;;;;;27.80;24.85;;;;;;;21.69;100.00;101179.78;5088142;28;20153;-73
2021/06/19 05:37:56;;;;;;;29.77;26.48;;;;;;;21.67;100.00;101189.84;5088033;28;20119;-73
2021/06/19 05:40:21;;;;;;;30.58;27.48;;;;;;;21.67;100.00;101187.16;5067130;28;20028;-73
2021/06/19 05:42:47;;;;;;;31.67;28.48;;;;;;;21.78;100.00;101184.66;5082957;28;20032;-74
2021/06/19 05:45:13;;;;;;;32.95;29.65;;;;;;;21.94;100.00;101191.41;5062871;28;20032;-73
2021/06/19 05:47:38;;;;;;;34.15;30.60;;;;;;;22.16;99.08;101191.91;5085441;28;20040;-72
2021/06/19 05:50:05;;;;;;;32.13;28.20;;;;;;;22.45;97.69;101197.78;5081869;28;20032;-73
2021/06/19 05:52:30;;;;;;;31.83;28.50;;;;;;;22.68;98.31;101204.44;5065165;28;20039;-73
2021/06/19 05:54:56;;;;;;;30.85;27.67;;;;;;;22.93;98.14;101209.81;5063449;28;20028;-73
2021/06/19 05:57:21;;;;;;;30.63;25.85;;;;;;;23.22;94.97;101213.72;5065478;28;20025;-72
2021/06/19 05:59:47;;;;;;;33.05;25.02;;;;;;;23.35;95.59;101214.63;5076633;28;20701;-73
2021/06/19 06:02:12;;;;;;;27.20;22.85;;;;;;;23.43;94.55;101214.34;5081661;28;20129;-72
2021/06/19 06:04:38;;;;;;;24.75;22.15;;;;;;;23.46;96.00;101211.25;5088549;28;20036;-72
2021/06/19 06:07:03;;;;;;;21.95;19.73;;;;;;;23.43;95.44;101217.03;5085238;28;20039;-73
2021/06/19 06:09:29;;;;;;;24.73;19.20;;;;;;;23.51;95.58;101214.09;5087537;28;20032;-73
2021/06/19 06:11:55;;;;;;;26.90;18.20;;;;;;;23.29;94.01;101219.81;5087968;28;20040;-72
2021/06/19 06:14:21;;;;;;;24.30;18.30;;;;;;;23.25;96.39;101232.00;5062207;28;20412;-72
2021/06/19 06:16:46;;;;;;;20.50;18.30;;;;;;;23.31;96.05;101230.31;5070718;28;20441;-73
2021/06/19 06:19:14;;;;;;;21.92;16.75;;;;;;;23.37;94.60;101231.28;5067185;28;20048;-73
2021/06/19 06:21:40;;;;;;;23.60;17.00;;;;;;;23.60;92.53;101234.19;5051041;28;20359;-72
2021/06/19 06:24:06;;;;;;;22.27;17.30;;;;;;;23.77;94.07;101234.41;5075592;28;20038;-72
2021/06/19 06:26:31;;;;;;;24.63;17.52;;;;;;;24.01;91.20;101222.00;5086722;28;20032;-72
2021/06/19 06:28:57;;;;;;;25.48;16.92;;;;;;;24.08;91.59;101221.94;5072804;28;20040;-73
2021/06/19 06:31:23;;;;;;;24.52;18.13;;;;;;;24.05;91.27;101236.63;5087759;28;20047;-73
2021/06/19 06:33:49;;;;;;;19.85;16.25;;;;;;;24.06;90.92;101232.06;5053707;28;20040;-73
2021/06/19 06:36:14;;;;;;;21.65;15.55;;;;;;;24.07;90.64;101239.03;5089099;28;20062;-73
2021/06/19 06:38:40;;;;;;;23.60;16.30;;;;;;;24.07;91.40;101241.72;5091543;28;20082;-72
2021/06/19 06:41:05;;;;;;;19.65;15.15;;;;;;;24.00;92.06;101241.81;5088356;28;20077;-74
2021/06/19 06:43:31;;;;;;;23.00;16.65;;;;;;;23.97;92.95;101244.13;5088222;28;20035;-74
2021/06/19 06:45:56;;;;;;;22.63;16.02;;;;;;;23.92;92.91;101246.63;5084191;28;20040;-72
2021/06/19 06:48:23;;;;;;;25.23;15.65;;;;;;;23.90;92.89;101253.06;5088719;28;20048;-74
2021/06/19 06:50:48;;;;;;;22.85;14.18;;;;;;;23.80;92.77;101255.41;5068336;28;20123;-73
2021/06/19 06:53:14;;;;;;;20.15;14.20;;;;;;;23.79;93.55;101253.78;5077740;28;20092;-73
2021/06/19 06:55:39;;;;;;;21.40;14.00;;;;;;;23.85;92.64;101257.44;5068230;28;20027;-73
2021/06/19 06:58:05;;;;;;;17.90;13.13;;;;;;;24.01;91.21;101256.03;5068095;28;20553;-73
2021/06/19 07:00:30;;;;;;;22.60;12.98;;;;;;;24.33;89.09;101262.03;5071029;28;20044;-76
2021/06/19 07:02:57;;;;;;;21.15;11.90;;;;;;;24.56;87.46;101255.97;5083906;28;20037;-75
2021/06/19 07:05:23;;;;;;;18.23;11.88;;;;;;;24.88;85.18;101263.78;5086751;28;20097;-76
2021/06/19 07:07:48;;;;;;;21.63;10.55;;;;;;;25.05;79.87;101266.63;5088818;28;20039;-74
2021/06/19 07:10:15;;;;;;;18.38;10.95;;;;;;;25.16;86.47;101265.81;5086278;28;20458;-75
2021/06/19 07:12:45;;;;;;;15.52;11.05;;;;;;;25.28;85.64;101268.56;5080765;28;20526;-74
2021/06/19 07:15:14;;;;;;;17.55;9.38;;;;;;;25.42;82.46;101266.47;5063798;28;20165;-75
2021/06/19 07:17:40;;;;;;;13.75;9.70;;;;;;;25.52;83.66;101268.56;5083664;28;20130;-74
2021/06/19 07:20:07;;;;;;;13.50;8.10;;;;;;;25.71;79.96;101271.97;5081725;28;20032;-76
2021/06/19 07:22:33;;;;;;;14.55;7.60;;;;;;;25.90;79.34;101272.63;5079496;28;20044;-73
2021/06/19 07:24:59;;;;;;;13.77;7.70;;;;;;;25.95;81.80;101272.78;5085424;28;20036;-72
2021/06/19 07:27:24;;;;;;;8.07;6.97;;;;;;;26.07;79.55;101278.97;5087207;28;20035;-76
2021/06/19 07:29:50;;;;;;;12.57;6.90;;;;;;;26.18;74.71;101272.75;5083131;28;20039;-74
2021/06/19 07:32:15;;;;;;;9.05;6.43;;;;;;;26.38;74.86;101274.19;5085150;28;20472;-74
2021/06/19 07:34:41;;;;;;;12.20;5.88;;;;;;;26.49;75.71;101270.66;5077706;28;20042;-73
2021/06/19 07:37:06;;;;;;;8.95;5.47;;;;;;;26.51;76.01;101273.91;5084116;28;20082;-74
2021/06/19 07:39:32;;;;;;;7.15;5.45;;;;;;;26.53;76.78;101271.00;5081955;28;20040;-74
2021/06/19 07:41:58;;;;;;;6.25;4.32;;;;;;;26.66;71.00;101284.19;5087321;28;20548;-74
2021/06/19 07:44:23;;;;;;;8.32;4.20;;;;;;;26.72;73.54;101275.13;5062002;28;20047;-73
2021/06/19 07:46:50;;;;;;;9.98;4.22;;;;;;;26.68;74.97;101268.59;5072930;28;20036;-74
2021/06/19 07:49:16;;;;;;;7.38;4.18;;;;;;;26.85;73.37;101284.78;5076088;28;20116;-74
2021/06/19 07:51:42;;;;;;;6.90;4.10;;;;;;;26.85;74.28;101281.28;5062578;28;20386;-75
2021/06/19 07:54:08;;;;;;;5.82;3.95;;;;;;;27.07;70.62;101286.75;5084908;28;20036;-74
2021/06/19 07:56:33;;;;;;;8.02;3.88;;;;;;;27.04;71.53;101287.25;5085344;28;20712;-74
2021/06/19 07:58:59;;;;;;;6.78;3.60;;;;;;;27.19;71.68;101288.31;5061695;28;20036;-74
2021/06/19 08:01:24;;;;;;;5.18;3.70;;;;;;;27.35;71.62;101299.34;5073934;28;20481;-77
2021/06/19 08:03:50;;;;;;;6.32;2.88;;;;;;;27.30;72.25;101300.09;5071182;28;20666;-74
2021/06/19 08:06:15;;;;;;;6.18;3.53;;;;;;;27.25;72.43;101293.78;5076586;28;20036;-73
2021/06/19 08:08:41;;;;;;;7.00;3.15;;;;;;;27.38;67.90;101296.19;5087790;28;20397;-73
2021/06/19 08:11:06;;;;;;;5.20;3.10;;;;;;;27.45;65.44;101302.22;5076425;28;20385;-74
2021/06/19 08:13:32;;;;;;;5.60;3.35;;;;;;;27.41;66.79;101309.19;5085293;28;20054;-73
2021/06/19 08:15:59;;;;;;;6.35;3.28;;;;;;;27.53;68.60;101309.88;5075973;28;20064;-72
2021/06/19 08:18:25;;;;;;;5.45;3.33;;;;;;;27.59;68.92;101313.47;5060618;28;20051;-73
2021/06/19 08:20:50;;;;;;;5.20;3.25;;;;;;;27.76;67.33;101308.06;5083175;28;20036;-73
2021/06/19 08:23:16;;;;;;;7.25;2.80;;;;;;;27.91;65.36;101310.19;5085316;28;20028;-73
2021/06/19 08:25:41;;;;;;;4.05;2.50;;;;;;;27.99;62.04;101303.53;5077634;28;20123;-73
2021/06/19 08:28:07;;;;;;;5.40;2.50;;;;;;;28.12;62.90;101309.41;5083190;28;20056;-73
2021/06/19 08:30:32;;;;;;;6.85;2.60;;;;;;;28.03;65.75;101313.59;5080794;28;20063;-73
2021/06/19 08:32:58;;;;;;;3.17;2.47;;;;;;;28.14;67.14;101311.84;5085655;28;20032;-73
2021/06/19 08:35:24;;;;;;;4.55;1.90;;;;;;;28.25;62.27;101318.97;5077724;28;20221;-73
2021/06/19 08:37:49;;;;;;;5.28;1.70;;;;;;;28.42;56.49;101321.63;5086124;28;20063;-72
2021/06/19 08:40:15;;;;;;;4.80;1.60;;;;;;;28.30;55.15;101323.63;5078327;28;20031;-72
2021/06/19 08:42:40;;;;;;;3.60;1.40;;;;;;;28.30;54.17;101316.34;5074154;28;20397;-71
2021/06/19 08:45:08;;;;;;;10.75;1.80;;;;;;;28.37;52.24;101328.81;5082926;28;20131;-72
2021/06/19 08:47:37;;;;;;;4.78;1.65;;;;;;;28.41;52.08;101321.88;5078731;28;20039;-72
2021/06/19 08:50:11;;;;;;;4.22;1.80;;;;;;;28.53;56.55;101315.28;5082113;28;20044;-72
2021/06/19 08:52:39;;;;;;;3.72;1.38;;;;;;;28.70;52.53;101307.09;5076213;28;20108;-73
2021/06/19 08:55:08;;;;;;;3.95;1.30;;;;;;;28.72;51.21;101310.38;5082402;28;20153;-72
2021/06/19 08:57:35;;;;;;;4.50;1.40;;;;;;;28.75;49.36;101309.06;5065771;28;20058;-72
2021/06/19 09:00:01;;;;;;;2.33;1.35;;;;;;;28.84;51.91;101317.50;5080050;28;20032;-71
2021/06/19 09:02:27;;;;;;;2.67;1.27;;;;;;;28.92;48.83;101314.34;5086317;28;20032;-71
2021/06/19 09:04:59;;;;;;;3.80;1.30;;;;;;;28.97;50.55;101321.66;5083899;28;20036;-70
2021/06/19 09:07:48;;;;;;;3.65;1.40;;;;;;;28.95;49.61;101326.50;5075912;28;20028;-72
2021/06/19 09:10:22;;;;;;;2.47;1.23;;;;;;;29.02;53.58;101322.53;5079917;28;20043;-71
2021/06/19 09:13:14;;;;;;;2.65;1.20;;;;;;;29.21;49.70;101330.28;5083305;28;20067;-71
2021/06/19 09:15:48;;;;;;;3.42;1.60;;;;;;;29.16;51.12;101327.53;5077915;28;20040;-72
2021/06/19 09:18:18;;;;;;;4.07;1.38;;;;;;;29.31;49.93;101333.91;5084145;28;20036;-71
2021/06/19 09:20:54;;;;;;;2.80;1.60;;;;;;;29.46;50.71;101330.50;5081717;28;20039;-72
2021/06/19 09:23:44;;;;;;;4.75;1.60;;;;;;;29.62;48.25;101333.31;5076933;28;20136;-73
2021/06/19 09:26:19;;;;;;;2.38;1.25;;;;;;;29.61;49.85;101342.47;5082781;28;20040;-70
2021/06/19 09:29:06;;;;;;;5.10;1.50;;;;;;;29.70;49.71;101338.22;5082203;28;20586;-71
2021/06/19 09:31:49;;;;;;;3.33;1.52;;;;;;;29.87;50.94;101343.50;5076960;28;20035;-72
2021/06/19 09:34:20;;;;;;;5.43;1.63;;;;;;;29.96;50.18;101346.53;5084942;28;20039;-71
2021/06/19 09:36:45;;;;;;;5.03;1.57;;;;;;;30.06;50.70;101344.69;5083813;28;20036;-71
2021/06/19 09:39:14;;;;;;;4.75;1.70;;;;;;;29.58;51.74;101349.22;5083168;28;20511;-73
2021/06/19 09:41:52;;;;;;;2.95;1.70;;;;;;;29.42;51.61;101350.19;5082897;28;20039;-72
2021/06/19 09:44:38;;;;;;;2.42;1.70;;;;;;;29.59;51.14;101352.75;5085621;28;20036;-72
2021/06/19 09:47:05;;;;;;;3.70;1.50;;;;;;;29.56;50.94;101362.19;5083897;28;20058;-72
2021/06/19 09:49:40;;;;;;;4.10;1.70;;;;;;;29.35;49.91;101354.97;5081304;28;20063;-72
2021/06/19 09:52:06;;;;;;;6.00;1.63;;;;;;;28.76;54.90;101355.75;5079570;28;20165;-72
2021/06/19 09:54:40;;;;;;;5.60;1.40;;;;;;;28.96;55.16;101355.16;5083323;28;20061;-72
2021/06/19 09:57:08;;;;;;;1.98;1.48;;;;;;;29.30;52.69;101358.47;5077562;28;20039;-72
2021/06/19 09:59:36;;;;;;;1.50;1.30;;;;;;;29.60;51.42;101365.19;5065200;28;20405;-72
2021/06/19 10:02:14;;;;;;;2.17;1.40;;;;;;;29.72;47.45;101351.47;5084936;28;20101;-72
2021/06/19 10:04:59;;;;;;;2.08;1.20;;;;;;;29.84;46.63;101360.25;5079142;28;20119;-72
2021/06/19 10:07:27;;;;;;;7.03;1.30;;;;;;;29.88;45.67;101362.16;5058382;28;21065;-73
2021/06/19 10:09:54;;;;;;;5.13;1.33;;;;;;;30.06;44.57;101358.22;5061840;28;20142;-72
2021/06/19 10:12:22;;;;;;;3.70;1.30;;;;;;;30.01;44.66;101362.78;5074837;28;20039;-70
2021/06/19 10:14:51;;;;;;;4.55;1.08;;;;;;;30.10;51.21;101363.91;5082090;28;20028;-72
2021/06/19 10:17:20;;;;;;;7.28;1.85;;;;;;;30.22;47.74;101359.09;5082656;28;20760;-72
2021/06/19 10:19:47;;;;;;;2.60;1.40;;;;;;;30.28;48.54;101368.06;5074601;28;20075;-72
2021/06/19 10:22:13;;;;;;;4.60;1.40;;;;;;;30.34;45.44;101360.81;5076839;28;20040;-73
2021/06/19 10:24:42;;;;;;;3.17;1.42;;;;;;;30.42;45.54;101361.13;5081794;28;20036;-72
2021/06/19 10:27:07;;;;;;;2.75;1.20;;;;;;;30.48;47.30;101364.66;5080760;28;20039;-72
2021/06/19 10:29:33;;;;;;;6.78;1.63;;;;;;;30.49;45.57;101366.25;5077703;28;20036;-72
2021/06/19 10:31:59;;;;;;;6.00;1.30;;;;;;;30.57;45.57;101362.22;5077469;28;20067;-74
2021/06/19 10:34:32;;;;;;;1.60;1.25;;;;;;;30.66;45.17;101363.34;5073182;28;20040;-72
2021/06/19 10:37:03;;;;;;;4.78;1.50;;;;;;;30.77;46.93;101362.28;5075349;28;20052;-72
2021/06/19 10:39:36;;;;;;;5.55;1.58;;;;;;;30.75;44.62;101358.22;5069669;28;20497;-74
2021/06/19 10:42:03;;;;;;;1.63;1.20;;;;;;;30.73;44.78;101357.69;5074458;28;20074;-74
2021/06/19 10:44:50;;;;;;;2.70;1.20;;;;;;;30.69;44.25;101354.69;5076527;28;20035;-74
2021/06/19 10:47:18;;;;;;;2.33;1.33;;;;;;;30.91;46.24;101350.97;5071882;28;20082;-71
2021/06/19 10:49:44;;;;;;;4.78;1.30;;;;;;;31.07;45.00;101351.81;5069065;28;20039;-73
2021/06/19 10:52:24;;;;;;;2.08;1.50;;;;;;;31.09;46.74;101353.16;5083272;28;20064;-72
2021/06/19 10:55:12;;;;;;;4.28;1.20;;;;;;;31.16;46.88;101356.44;5076707;28;20500;-72
2021/06/19 10:57:43;;;;;;;2.70;1.40;;;;;;;30.99;43.72;101348.56;5073706;28;20790;-70
2021/06/19 11:00:27;;;;;;;6.22;1.40;;;;;;;30.97;44.94;101358.03;5072435;28;20062;-71
2021/06/19 11:02:54;;;;;;;2.72;1.20;;;;;;;31.08;43.96;101351.56;5080195;28;20768;-73
2021/06/19 11:05:49;;;;;;;4.05;1.20;;;;;;;31.13;42.47;101353.44;5075217;28;20040;-71
2021/06/19 11:08:15;;;;;;;1.70;1.10;;;;;;;31.35;43.73;101345.84;5068488;28;20484;-71
2021/06/19 11:10:47;;;;;;;2.08;1.30;;;;;;;31.22;43.83;101351.81;5061354;28;20064;-73
2021/06/19 11:13:31;;;;;;;;;;;;;;;31.28;45.19;101353.44;5042862;28;20040;-72
2021/06/19 11:16:06;;;;;;;4.47;1.30;;;;;;;31.17;43.72;101349.09;5068472;28;19959;-73
2021/06/19 11:18:52;;;;;;;3.38;1.25;;;;;;;31.16;44.58;101350.19;5070499;28;20040;-73
2021/06/19 11:21:19;;;;;;;1.55;1.00;;;;;;;31.10;45.02;101343.97;5079203;28;20036;-73